PWSweather.com
Personal Weather Stations
Station Observations
UXOLA
Alcoy, AlcoyES

AlcoyAlcoyES

Lat: 38.70299, Lon: -0.48184

Elevation: 1935

Station Type: PCE FWS-20,

http://www.fiestasalcoy.xyz

High Low Average
Temperature 54.7°F12.6°C 38.7°F3.7°C 45.7°F7.6°C
Dew Point 43.0°F6.1°C 34.0°F1.1°C 39.0°F3.9°C
Winds 8.3 mph 13.4 kmh Calm Calm 2.0 mph SSE3.2 kmh SSE
Wind Gusts 12.1 mph19.5 kmh 1.6 mph2.6 kmh 5.0 mph8.0 kmh
Humidity 86% 61% 78%
Pressure 29.75 in1007.5 mb 29.64 in1003.7 mb -
Precipitation 0.00 in0.0 mm - -
Hour Temp Dew Point Humidity Winds Wind Gusts Pressure Precip Precip Rate Daily Precip Total
12:00 AM 43.2°F6.2°C 38.4°F3.6°C 83% 0.7 mph ENE1.1 kmh ENE 2.2 mph3.5 kmh 29.75 in1007.5 mb 0.00 in0.0 mm 0.00 in0.0 mm 0.00 in0.0 mm
12:15 AM 43.3°F6.3°C 38.5°F3.6°C 83% 0.7 mph NE1.1 kmh NE 1.6 mph2.6 kmh 29.75 in1007.5 mb 0.00 in0.0 mm 0.00 in0.0 mm 0.00 in0.0 mm
12:30 AM 43.5°F6.4°C 38.7°F3.7°C 83% 1.6 mph NNW2.6 kmh NNW 3.1 mph5.0 kmh 29.75 in1007.5 mb 0.00 in0.0 mm 0.00 in0.0 mm 0.00 in0.0 mm
12:45 AM 43.5°F6.4°C 38.7°F3.7°C 83% Calm Calm 2.2 mph3.5 kmh 29.74 in1007.1 mb 0.00 in0.0 mm 0.00 in0.0 mm 0.00 in0.0 mm
01:00 AM 43.3°F6.3°C 38.5°F3.6°C 83% 1.6 mph ESE2.6 kmh ESE 3.8 mph6.1 kmh 29.74 in1007.1 mb 0.00 in0.0 mm 0.00 in0.0 mm 0.00 in0.0 mm
01:15 AM 43.2°F6.2°C 38.4°F3.6°C 83% 2.2 mph N3.5 kmh N 3.1 mph5.0 kmh 29.75 in1007.5 mb 0.00 in0.0 mm 0.00 in0.0 mm 0.00 in0.0 mm
01:30 AM 43.3°F6.3°C 38.5°F3.6°C 83% 0.7 mph ESE1.1 kmh ESE 1.6 mph2.6 kmh 29.74 in1007.1 mb 0.00 in0.0 mm 0.00 in0.0 mm 0.00 in0.0 mm
01:45 AM 43.3°F6.3°C 38.5°F3.6°C 83% 1.6 mph SE2.6 kmh SE 3.1 mph5.0 kmh 29.74 in1007.1 mb 0.00 in0.0 mm 0.00 in0.0 mm 0.00 in0.0 mm
02:00 AM 43.3°F6.3°C 38.5°F3.6°C 83% 1.6 mph SE2.6 kmh SE 3.8 mph6.1 kmh 29.74 in1007.1 mb 0.00 in0.0 mm 0.00 in0.0 mm 0.00 in0.0 mm
02:15 AM 43.3°F6.3°C 38.5°F3.6°C 83% 1.6 mph SE2.6 kmh SE 3.8 mph6.1 kmh 29.73 in1006.8 mb 0.00 in0.0 mm 0.00 in0.0 mm 0.00 in0.0 mm
02:30 AM 43.3°F6.3°C 38.5°F3.6°C 83% 1.6 mph ESE2.6 kmh ESE 2.2 mph3.5 kmh 29.73 in1006.8 mb 0.00 in0.0 mm 0.00 in0.0 mm 0.00 in0.0 mm
02:45 AM 43.2°F6.2°C 38.4°F3.6°C 83% 0.7 mph ESE1.1 kmh ESE 3.1 mph5.0 kmh 29.73 in1006.8 mb 0.00 in0.0 mm 0.00 in0.0 mm 0.00 in0.0 mm
03:00 AM 43.2°F6.2°C 38.4°F3.6°C 83% 1.6 mph SE2.6 kmh SE 2.2 mph3.5 kmh 29.72 in1006.4 mb 0.00 in0.0 mm 0.00 in0.0 mm 0.00 in0.0 mm
03:15 AM 43.0°F6.1°C 37.9°F3.3°C 82% 2.2 mph E3.5 kmh E 3.1 mph5.0 kmh 29.73 in1006.8 mb 0.00 in0.0 mm 0.00 in0.0 mm 0.00 in0.0 mm
03:30 AM 42.4°F5.8°C 37.3°F2.9°C 82% 1.6 mph NW2.6 kmh NW 3.1 mph5.0 kmh 29.72 in1006.4 mb 0.00 in0.0 mm 0.00 in0.0 mm 0.00 in0.0 mm
03:45 AM 41.9°F5.5°C 36.8°F2.7°C 82% 0.7 mph NW1.1 kmh NW 3.1 mph5.0 kmh 29.72 in1006.4 mb 0.00 in0.0 mm 0.00 in0.0 mm 0.00 in0.0 mm
04:00 AM 41.7°F5.4°C 36.6°F2.6°C 82% 1.6 mph NE2.6 kmh NE 2.2 mph3.5 kmh 29.71 in1006.1 mb 0.00 in0.0 mm 0.00 in0.0 mm 0.00 in0.0 mm
04:15 AM 41.9°F5.5°C 37.1°F2.8°C 83% 1.6 mph NE2.6 kmh NE 3.8 mph6.1 kmh 29.71 in1006.1 mb 0.00 in0.0 mm 0.00 in0.0 mm 0.00 in0.0 mm
04:30 AM 41.5°F5.3°C 36.5°F2.5°C 82% 1.6 mph NE2.6 kmh NE 2.2 mph3.5 kmh 29.71 in1006.1 mb 0.00 in0.0 mm 0.00 in0.0 mm 0.00 in0.0 mm
04:45 AM 40.8°F4.9°C 35.8°F2.1°C 82% 1.6 mph NE2.6 kmh NE 3.8 mph6.1 kmh 29.71 in1006.1 mb 0.00 in0.0 mm 0.00 in0.0 mm 0.00 in0.0 mm
05:00 AM 40.6°F4.8°C 35.6°F2.0°C 82% 0.7 mph NNE1.1 kmh NNE 3.1 mph5.0 kmh 29.71 in1006.1 mb 0.00 in0.0 mm 0.00 in0.0 mm 0.00 in0.0 mm
05:15 AM 40.6°F4.8°C 35.9°F2.2°C 83% 2.2 mph ENE3.5 kmh ENE 3.1 mph5.0 kmh 29.70 in1005.8 mb 0.00 in0.0 mm 0.00 in0.0 mm 0.00 in0.0 mm
05:30 AM 40.6°F4.8°C 35.9°F2.2°C 83% 0.7 mph E1.1 kmh E 2.2 mph3.5 kmh 29.70 in1005.8 mb 0.00 in0.0 mm 0.00 in0.0 mm 0.00 in0.0 mm
05:45 AM 40.6°F4.8°C 35.9°F2.2°C 83% 1.6 mph NE2.6 kmh NE 3.1 mph5.0 kmh 29.70 in1005.8 mb 0.00 in0.0 mm 0.00 in0.0 mm 0.00 in0.0 mm
06:00 AM 40.3°F4.6°C 35.2°F1.8°C 82% 1.6 mph NW2.6 kmh NW 3.1 mph5.0 kmh 29.70 in1005.8 mb 0.00 in0.0 mm 0.00 in0.0 mm 0.00 in0.0 mm
06:15 AM 40.3°F4.6°C 35.2°F1.8°C 82% 1.6 mph N2.6 kmh N 2.2 mph3.5 kmh 29.70 in1005.8 mb 0.00 in0.0 mm 0.00 in0.0 mm 0.00 in0.0 mm
06:30 AM 39.9°F4.4°C 34.9°F1.6°C 82% 1.6 mph N2.6 kmh N 3.8 mph6.1 kmh 29.71 in1006.1 mb 0.00 in0.0 mm 0.00 in0.0 mm 0.00 in0.0 mm
06:45 AM 39.9°F4.4°C 35.2°F1.8°C 83% 0.7 mph NE1.1 kmh NE 2.2 mph3.5 kmh 29.71 in1006.1 mb 0.00 in0.0 mm 0.00 in0.0 mm 0.00 in0.0 mm
07:00 AM 40.1°F4.5°C 35.4°F1.9°C 83% 3.1 mph NNW5.0 kmh NNW 3.8 mph6.1 kmh 29.70 in1005.8 mb 0.00 in0.0 mm 0.00 in0.0 mm 0.00 in0.0 mm
07:15 AM 39.6°F4.2°C 34.8°F1.6°C 83% 3.1 mph NW5.0 kmh NW 3.8 mph6.1 kmh 29.70 in1005.8 mb 0.00 in0.0 mm 0.00 in0.0 mm 0.00 in0.0 mm
07:30 AM 39.0°F3.9°C 34.3°F1.3°C 83% 0.7 mph NNW1.1 kmh NNW 3.8 mph6.1 kmh 29.70 in1005.8 mb 0.00 in0.0 mm 0.00 in0.0 mm 0.00 in0.0 mm
07:45 AM 38.7°F3.7°C 34.0°F1.1°C 83% 1.6 mph WSW2.6 kmh WSW 3.8 mph6.1 kmh 29.70 in1005.8 mb 0.00 in0.0 mm 0.00 in0.0 mm 0.00 in0.0 mm
08:00 AM 38.7°F3.7°C 34.3°F1.3°C 84% Calm Calm 3.1 mph5.0 kmh 29.71 in1006.1 mb 0.00 in0.0 mm 0.00 in0.0 mm 0.00 in0.0 mm
08:15 AM 39.2°F4.0°C 35.1°F1.7°C 85% 3.8 mph ESE6.1 kmh ESE 6.0 mph9.7 kmh 29.72 in1006.4 mb 0.00 in0.0 mm 0.00 in0.0 mm 0.00 in0.0 mm
08:30 AM 39.7°F4.3°C 35.9°F2.2°C 86% 1.6 mph ESE2.6 kmh ESE 3.8 mph6.1 kmh 29.72 in1006.4 mb 0.00 in0.0 mm 0.00 in0.0 mm 0.00 in0.0 mm
08:45 AM 39.7°F4.3°C 35.9°F2.2°C 86% Calm Calm 2.2 mph3.5 kmh 29.73 in1006.8 mb 0.00 in0.0 mm 0.00 in0.0 mm 0.00 in0.0 mm
09:00 AM 40.1°F4.5°C 36.3°F2.4°C 86% Calm Calm 3.1 mph5.0 kmh 29.73 in1006.8 mb 0.00 in0.0 mm 0.00 in0.0 mm 0.00 in0.0 mm
09:15 AM 40.3°F4.6°C 36.4°F2.4°C 86% 3.1 mph WNW5.0 kmh WNW 3.8 mph6.1 kmh 29.73 in1006.8 mb 0.00 in0.0 mm 0.00 in0.0 mm 0.00 in0.0 mm
09:30 AM 40.3°F4.6°C 36.1°F2.3°C 85% 3.1 mph NW5.0 kmh NW 3.8 mph6.1 kmh 29.74 in1007.1 mb 0.00 in0.0 mm 0.00 in0.0 mm 0.00 in0.0 mm
09:45 AM 40.6°F4.8°C 36.5°F2.5°C 85% 2.2 mph NW3.5 kmh NW 4.5 mph7.2 kmh 29.74 in1007.1 mb 0.00 in0.0 mm 0.00 in0.0 mm 0.00 in0.0 mm
10:00 AM 41.2°F5.1°C 37.0°F2.8°C 85% 0.7 mph SE1.1 kmh SE 3.1 mph5.0 kmh 29.74 in1007.1 mb 0.00 in0.0 mm 0.00 in0.0 mm 0.00 in0.0 mm
10:15 AM 41.5°F5.3°C 37.4°F3.0°C 85% Calm Calm 2.2 mph3.5 kmh 29.74 in1007.1 mb 0.00 in0.0 mm 0.00 in0.0 mm 0.00 in0.0 mm
10:30 AM 42.3°F5.7°C 38.1°F3.4°C 85% Calm Calm 3.1 mph5.0 kmh 29.74 in1007.1 mb 0.00 in0.0 mm 0.00 in0.0 mm 0.00 in0.0 mm
10:45 AM 43.2°F6.2°C 39.0°F3.9°C 85% 2.2 mph NW3.5 kmh NW 3.8 mph6.1 kmh 29.73 in1006.8 mb 0.00 in0.0 mm 0.00 in0.0 mm 0.00 in0.0 mm
11:00 AM 43.5°F6.4°C 39.0°F3.9°C 84% Calm Calm 5.4 mph8.7 kmh 29.73 in1006.8 mb 0.00 in0.0 mm 0.00 in0.0 mm 0.00 in0.0 mm
11:15 AM 44.2°F6.8°C 37.8°F3.2°C 78% 0.7 mph W1.1 kmh W 4.5 mph7.2 kmh 29.73 in1006.8 mb 0.00 in0.0 mm 0.00 in0.0 mm 0.00 in0.0 mm
11:30 AM 45.3°F7.4°C 38.5°F3.6°C 77% 0.7 mph NW1.1 kmh NW 4.5 mph7.2 kmh 29.73 in1006.8 mb 0.00 in0.0 mm 0.00 in0.0 mm 0.00 in0.0 mm
11:45 AM 46.6°F8.1°C 39.1°F3.9°C 75% 0.7 mph NNW1.1 kmh NNW 3.1 mph5.0 kmh 29.73 in1006.8 mb 0.00 in0.0 mm 0.00 in0.0 mm 0.00 in0.0 mm
12:00 PM 47.8°F8.8°C 39.6°F4.2°C 73% 1.6 mph SE2.6 kmh SE 3.8 mph6.1 kmh 29.73 in1006.8 mb 0.00 in0.0 mm 0.00 in0.0 mm 0.00 in0.0 mm
12:15 PM 49.3°F9.6°C 40.6°F4.8°C 72% 0.7 mph SSE1.1 kmh SSE 5.4 mph8.7 kmh 29.73 in1006.8 mb 0.00 in0.0 mm 0.00 in0.0 mm 0.00 in0.0 mm
12:30 PM 50.2°F10.1°C 40.8°F4.9°C 70% 2.2 mph SE3.5 kmh SE 6.0 mph9.7 kmh 29.72 in1006.4 mb 0.00 in0.0 mm 0.00 in0.0 mm 0.00 in0.0 mm
12:45 PM 50.7°F10.4°C 40.6°F4.8°C 68% 1.6 mph SE2.6 kmh SE 6.9 mph11.1 kmh 29.70 in1005.8 mb 0.00 in0.0 mm 0.00 in0.0 mm 0.00 in0.0 mm
01:00 PM 52.2°F11.2°C 41.5°F5.3°C 67% 4.5 mph SE7.2 kmh SE 9.2 mph14.8 kmh 29.70 in1005.8 mb 0.00 in0.0 mm 0.00 in0.0 mm 0.00 in0.0 mm
01:15 PM 52.5°F11.4°C 41.1°F5.1°C 65% 6.0 mph ESE9.7 kmh ESE 9.2 mph14.8 kmh 29.69 in1005.4 mb 0.00 in0.0 mm 0.00 in0.0 mm 0.00 in0.0 mm
01:30 PM 53.2°F11.8°C 40.6°F4.8°C 62% 6.0 mph SE9.7 kmh SE 9.2 mph14.8 kmh 29.69 in1005.4 mb 0.00 in0.0 mm 0.00 in0.0 mm 0.00 in0.0 mm
01:45 PM 53.8°F12.1°C 40.7°F4.8°C 61% 3.8 mph SE6.1 kmh SE 8.3 mph13.4 kmh 29.68 in1005.1 mb 0.00 in0.0 mm 0.00 in0.0 mm 0.00 in0.0 mm
02:00 PM 54.5°F12.5°C 41.3°F5.2°C 61% 6.9 mph ESE11.1 kmh ESE 8.3 mph13.4 kmh 29.67 in1004.7 mb 0.00 in0.0 mm 0.00 in0.0 mm 0.00 in0.0 mm
02:15 PM 54.1°F12.3°C 41.0°F5.0°C 61% 6.9 mph SE11.1 kmh SE 9.2 mph14.8 kmh 29.67 in1004.7 mb 0.00 in0.0 mm 0.00 in0.0 mm 0.00 in0.0 mm
02:30 PM 54.3°F12.4°C 41.2°F5.1°C 61% 5.4 mph SE8.7 kmh SE 9.2 mph14.8 kmh 29.67 in1004.7 mb 0.00 in0.0 mm 0.00 in0.0 mm 0.00 in0.0 mm
02:45 PM 54.7°F12.6°C 41.5°F5.3°C 61% 7.6 mph SE12.2 kmh SE 10.7 mph17.2 kmh 29.66 in1004.4 mb 0.00 in0.0 mm 0.00 in0.0 mm 0.00 in0.0 mm
03:00 PM 54.3°F12.4°C 41.6°F5.3°C 62% 6.9 mph SE11.1 kmh SE 9.2 mph14.8 kmh 29.65 in1004.1 mb 0.00 in0.0 mm 0.00 in0.0 mm 0.00 in0.0 mm
03:15 PM 54.3°F12.4°C 41.2°F5.1°C 61% 8.3 mph E13.4 kmh E 10.7 mph17.2 kmh 29.65 in1004.1 mb 0.00 in0.0 mm 0.00 in0.0 mm 0.00 in0.0 mm
03:30 PM 54.3°F12.4°C 41.6°F5.3°C 62% 5.4 mph SE8.7 kmh SE 9.2 mph14.8 kmh 29.65 in1004.1 mb 0.00 in0.0 mm 0.00 in0.0 mm 0.00 in0.0 mm
03:45 PM 54.3°F12.4°C 41.6°F5.3°C 62% 5.4 mph SE8.7 kmh SE 9.8 mph15.8 kmh 29.64 in1003.7 mb 0.00 in0.0 mm 0.00 in0.0 mm 0.00 in0.0 mm
04:00 PM 54.1°F12.3°C 41.4°F5.2°C 62% 6.9 mph E11.1 kmh E 9.8 mph15.8 kmh 29.65 in1004.1 mb 0.00 in0.0 mm 0.00 in0.0 mm 0.00 in0.0 mm
04:15 PM 54.0°F12.2°C 41.7°F5.4°C 63% 4.5 mph SE7.2 kmh SE 12.1 mph19.5 kmh 29.65 in1004.1 mb 0.00 in0.0 mm 0.00 in0.0 mm 0.00 in0.0 mm
04:30 PM 53.4°F11.9°C 41.6°F5.3°C 64% 3.8 mph ESE6.1 kmh ESE 9.8 mph15.8 kmh 29.65 in1004.1 mb 0.00 in0.0 mm 0.00 in0.0 mm 0.00 in0.0 mm
04:45 PM 53.2°F11.8°C 41.4°F5.2°C 64% 4.5 mph SE7.2 kmh SE 9.2 mph14.8 kmh 29.65 in1004.1 mb 0.00 in0.0 mm 0.00 in0.0 mm 0.00 in0.0 mm
05:00 PM 52.5°F11.4°C 43.0°F6.1°C 70% 5.4 mph SE8.7 kmh SE 9.2 mph14.8 kmh 29.65 in1004.1 mb 0.00 in0.0 mm 0.00 in0.0 mm 0.00 in0.0 mm
05:15 PM 52.0°F11.1°C 42.9°F6.1°C 71% 5.4 mph ESE8.7 kmh ESE 9.8 mph15.8 kmh 29.65 in1004.1 mb 0.00 in0.0 mm 0.00 in0.0 mm 0.00 in0.0 mm
05:30 PM 51.3°F10.7°C 42.2°F5.7°C 71% 5.4 mph SE8.7 kmh SE 6.9 mph11.1 kmh 29.64 in1003.7 mb 0.00 in0.0 mm 0.00 in0.0 mm 0.00 in0.0 mm
05:45 PM 50.4°F10.2°C 41.7°F5.4°C 72% 3.1 mph ESE5.0 kmh ESE 7.6 mph12.2 kmh 29.65 in1004.1 mb 0.00 in0.0 mm 0.00 in0.0 mm 0.00 in0.0 mm
06:00 PM 49.6°F9.8°C 41.3°F5.2°C 73% 3.8 mph SE6.1 kmh SE 6.0 mph9.7 kmh 29.65 in1004.1 mb 0.00 in0.0 mm 0.00 in0.0 mm 0.00 in0.0 mm
06:15 PM 48.7°F9.3°C 40.8°F4.9°C 74% 2.2 mph SE3.5 kmh SE 6.0 mph9.7 kmh 29.65 in1004.1 mb 0.00 in0.0 mm 0.00 in0.0 mm 0.00 in0.0 mm
06:30 PM 48.0°F8.9°C 40.8°F4.9°C 76% 0.7 mph SE1.1 kmh SE 6.0 mph9.7 kmh 29.65 in1004.1 mb 0.00 in0.0 mm 0.00 in0.0 mm 0.00 in0.0 mm
06:45 PM 47.5°F8.6°C 40.6°F4.8°C 77% 3.1 mph SE5.0 kmh SE 4.5 mph7.2 kmh 29.65 in1004.1 mb 0.00 in0.0 mm 0.00 in0.0 mm 0.00 in0.0 mm
07:00 PM 46.9°F8.3°C 40.4°F4.7°C 78% 1.6 mph SE2.6 kmh SE 4.5 mph7.2 kmh 29.67 in1004.7 mb 0.00 in0.0 mm 0.00 in0.0 mm 0.00 in0.0 mm
07:15 PM 46.8°F8.2°C 40.9°F4.9°C 80% 1.6 mph SE2.6 kmh SE 3.8 mph6.1 kmh 29.67 in1004.7 mb 0.00 in0.0 mm 0.00 in0.0 mm 0.00 in0.0 mm
07:30 PM 46.6°F8.1°C 40.7°F4.8°C 80% 2.2 mph SE3.5 kmh SE 3.8 mph6.1 kmh 29.67 in1004.7 mb 0.00 in0.0 mm 0.00 in0.0 mm 0.00 in0.0 mm
07:45 PM 46.4°F8.0°C 40.9°F4.9°C 81% 0.7 mph SE1.1 kmh SE 3.8 mph6.1 kmh 29.67 in1004.7 mb 0.00 in0.0 mm 0.00 in0.0 mm 0.00 in0.0 mm
08:00 PM 46.4°F8.0°C 40.9°F4.9°C 81% 3.8 mph SE6.1 kmh SE 5.4 mph8.7 kmh 29.68 in1005.1 mb 0.00 in0.0 mm 0.00 in0.0 mm 0.00 in0.0 mm
08:15 PM 46.4°F8.0°C 41.2°F5.1°C 82% 1.6 mph SSE2.6 kmh SSE 4.5 mph7.2 kmh 29.68 in1005.1 mb 0.00 in0.0 mm 0.00 in0.0 mm 0.00 in0.0 mm
08:30 PM 46.4°F8.0°C 41.2°F5.1°C 82% 2.2 mph ESE3.5 kmh ESE 4.5 mph7.2 kmh 29.68 in1005.1 mb 0.00 in0.0 mm 0.00 in0.0 mm 0.00 in0.0 mm
08:45 PM 46.4°F8.0°C 41.2°F5.1°C 82% 2.2 mph SE3.5 kmh SE 4.5 mph7.2 kmh 29.68 in1005.1 mb 0.00 in0.0 mm 0.00 in0.0 mm 0.00 in0.0 mm
09:00 PM 46.2°F7.9°C 41.3°F5.2°C 83% 1.6 mph SE2.6 kmh SE 5.4 mph8.7 kmh 29.68 in1005.1 mb 0.00 in0.0 mm 0.00 in0.0 mm 0.00 in0.0 mm
09:15 PM 46.0°F7.8°C 41.2°F5.1°C 83% 2.2 mph SE3.5 kmh SE 5.4 mph8.7 kmh 29.69 in1005.4 mb 0.00 in0.0 mm 0.00 in0.0 mm 0.00 in0.0 mm
09:30 PM 45.9°F7.7°C 41.0°F5.0°C 83% 3.1 mph ESE5.0 kmh ESE 6.0 mph9.7 kmh 29.69 in1005.4 mb 0.00 in0.0 mm 0.00 in0.0 mm 0.00 in0.0 mm
09:45 PM 45.7°F7.6°C 41.1°F5.1°C 84% 1.6 mph ESE2.6 kmh ESE 4.5 mph7.2 kmh 29.69 in1005.4 mb 0.00 in0.0 mm 0.00 in0.0 mm 0.00 in0.0 mm
10:00 PM 45.5°F7.5°C 41.0°F5.0°C 84% 2.2 mph SE3.5 kmh SE 6.9 mph11.1 kmh 29.69 in1005.4 mb 0.00 in0.0 mm 0.00 in0.0 mm 0.00 in0.0 mm
10:15 PM 45.5°F7.5°C 41.0°F5.0°C 84% 1.6 mph SE2.6 kmh SE 6.0 mph9.7 kmh 29.68 in1005.1 mb 0.00 in0.0 mm 0.00 in0.0 mm 0.00 in0.0 mm
10:30 PM 45.5°F7.5°C 41.0°F5.0°C 84% Calm Calm 5.4 mph8.7 kmh 29.69 in1005.4 mb 0.00 in0.0 mm 0.00 in0.0 mm 0.00 in0.0 mm
10:45 PM 45.5°F7.5°C 40.6°F4.8°C 83% 0.7 mph ESE1.1 kmh ESE 3.8 mph6.1 kmh 29.69 in1005.4 mb 0.00 in0.0 mm 0.00 in0.0 mm 0.00 in0.0 mm
11:00 PM 45.5°F7.5°C 40.6°F4.8°C 83% 1.6 mph SE2.6 kmh SE 5.4 mph8.7 kmh 29.69 in1005.4 mb 0.00 in0.0 mm 0.00 in0.0 mm 0.00 in0.0 mm
11:15 PM 45.7°F7.6°C 40.5°F4.7°C 82% 0.7 mph SE1.1 kmh SE 4.5 mph7.2 kmh 29.69 in1005.4 mb 0.00 in0.0 mm 0.00 in0.0 mm 0.00 in0.0 mm
11:30 PM 45.7°F7.6°C 40.5°F4.7°C 82% 3.1 mph ESE5.0 kmh ESE 3.8 mph6.1 kmh 29.69 in1005.4 mb 0.00 in0.0 mm 0.00 in0.0 mm 0.00 in0.0 mm
11:45 PM 45.7°F7.6°C 40.2°F4.6°C 81% 3.1 mph SE5.0 kmh SE 6.0 mph9.7 kmh 29.69 in1005.4 mb 0.00 in0.0 mm 0.00 in0.0 mm 0.00 in0.0 mm